Time;durP1;ratioP1;P1;durP2;ratioP2;P2;SDS_P1;SDS_P2;PMS_P1;PMS_P2;Temp;Humidity;BMP_temperature;BMP_pressure;BME280_temperature;BME280_humidity;BME280_pressure;Samples;Min_cycle;Max_cycle;Signal;HPM_P1;HPM_P2
2022/01/11 00:02:24;;;;;;;48.73;22.37;;;2.90;99.90;;;;;;4956624;28;20145;-69
2022/01/11 00:04:51;;;;;;;50.03;21.83;;;3.00;99.90;;;;;;4956524;29;20424;-69
2022/01/11 00:07:19;;;;;;;44.17;21.13;;;3.00;99.90;;;;;;4956738;29;20460;-69
2022/01/11 00:09:48;;;;;;;47.53;21.80;;;3.00;99.90;;;;;;4956628;29;20098;-69
2022/01/11 00:12:15;;;;;;;57.20;21.03;;;2.90;99.90;;;;;;4956046;28;20138;-69
2022/01/11 00:14:44;;;;;;;49.13;20.87;;;2.90;99.90;;;;;;4956183;29;20530;-69
2022/01/11 00:17:10;;;;;;;49.43;20.97;;;2.90;99.90;;;;;;4956236;29;20134;-69
2022/01/11 00:19:37;;;;;;;48.90;21.60;;;2.90;99.90;;;;;;4956284;29;20138;-69
2022/01/11 00:22:08;;;;;;;45.67;20.93;;;2.90;99.90;;;;;;4956653;28;20063;-69
2022/01/11 00:24:36;;;;;;;48.07;20.90;;;2.90;99.90;;;;;;4956321;29;20055;-69
2022/01/11 00:27:05;;;;;;;38.47;18.80;;;2.90;99.90;;;;;;4956003;29;20146;-69
2022/01/11 00:29:34;;;;;;;43.73;19.33;;;2.90;99.90;;;;;;4956055;29;20465;-69
2022/01/11 00:32:07;;;;;;;45.27;20.27;;;2.90;99.90;;;;;;4955931;28;20423;-69
2022/01/11 00:34:47;;;;;;;43.70;19.13;;;2.90;99.90;;;;;;4956102;29;20066;-69
2022/01/11 00:37:14;;;;;;;48.77;21.67;;;2.90;99.90;;;;;;4979262;29;20058;-69
2022/01/11 00:39:42;;;;;;;45.53;20.10;;;2.80;99.90;;;;;;4968909;29;20090;-69
2022/01/11 00:42:09;;;;;;;40.77;19.93;;;2.80;99.90;;;;;;4956035;28;20554;-69
2022/01/11 00:44:36;;;;;;;39.20;17.00;;;2.80;99.90;;;;;;4955902;28;20494;-69
2022/01/11 00:47:05;;;;;;;44.13;18.63;;;2.80;99.90;;;;;;4955233;29;20047;-69
2022/01/11 00:49:33;;;;;;;42.47;18.20;;;2.90;99.90;;;;;;4955715;29;20082;-69
2022/01/11 00:52:00;;;;;;;46.23;18.33;;;2.90;99.90;;;;;;4955143;28;20114;-69
2022/01/11 00:54:27;;;;;;;41.67;19.10;;;2.80;99.90;;;;;;4955810;29;20479;-69
2022/01/11 00:56:54;;;;;;;41.60;18.17;;;2.80;99.90;;;;;;4955330;29;20138;-69
2022/01/11 00:59:21;;;;;;;41.50;17.83;;;2.80;99.90;;;;;;4955719;29;20087;-69
2022/01/11 01:01:48;;;;;;;39.57;16.87;;;2.80;99.90;;;;;;4955478;28;20419;-69
2022/01/11 01:04:17;;;;;;;45.63;19.50;;;2.90;99.90;;;;;;4955479;29;20137;-69
2022/01/11 01:06:45;;;;;;;45.10;19.13;;;2.80;99.90;;;;;;4955138;29;20048;-68
2022/01/11 01:09:12;;;;;;;48.07;19.27;;;2.90;99.90;;;;;;4955313;29;20059;-69
2022/01/11 01:11:41;;;;;;;46.73;21.83;;;2.80;99.90;;;;;;4955224;28;20492;-69
2022/01/11 01:14:08;;;;;;;55.73;20.63;;;2.80;99.90;;;;;;4955445;29;20090;-69
2022/01/11 01:16:35;;;;;;;49.57;20.90;;;2.90;99.90;;;;;;4955193;29;20483;-69
2022/01/11 01:19:02;;;;;;;47.40;21.23;;;2.80;99.90;;;;;;4955212;29;20087;-69
2022/01/11 01:21:36;;;;;;;51.17;23.93;;;2.80;99.90;;;;;;4955610;28;20054;-69
2022/01/11 01:24:04;;;;;;;43.20;20.00;;;2.80;99.90;;;;;;4978036;29;20075;-69
2022/01/11 01:26:31;;;;;;;46.17;22.20;;;2.80;99.90;;;;;;4966958;29;20507;-69
2022/01/11 01:28:59;;;;;;;46.47;21.93;;;2.90;99.90;;;;;;4958662;29;20145;-69
2022/01/11 01:31:26;;;;;;;45.73;20.87;;;2.80;99.90;;;;;;4955019;28;20149;-69
2022/01/11 01:33:54;;;;;;;49.50;21.43;;;2.80;99.90;;;;;;4955030;29;20058;-69
2022/01/11 01:36:22;;;;;;;49.53;22.57;;;2.90;99.90;;;;;;4954634;29;20093;-69
2022/01/11 01:38:51;;;;;;;53.27;20.93;;;2.90;99.90;;;;;;4954872;29;20083;-69
2022/01/11 01:41:20;;;;;;;50.77;22.67;;;2.90;99.90;;;;;;4954549;28;20051;-69
2022/01/11 01:43:49;;;;;;;49.90;22.27;;;2.90;99.90;;;;;;4954725;29;20054;-69
2022/01/11 01:46:17;;;;;;;44.63;20.50;;;2.90;99.90;;;;;;4955085;29;20141;-69
2022/01/11 01:48:54;;;;;;;45.70;20.33;;;2.80;99.90;;;;;;4954853;29;20083;-69
2022/01/11 01:51:21;;;;;;;53.13;20.90;;;2.90;99.90;;;;;;4954779;28;20055;-69
2022/01/11 01:53:53;;;;;;;43.47;19.73;;;2.80;99.90;;;;;;4954400;29;20146;-69
2022/01/11 01:56:22;;;;;;;48.07;19.97;;;2.80;99.90;;;;;;4954359;28;20059;-69
2022/01/11 01:58:49;;;;;;;43.30;19.37;;;2.70;99.90;;;;;;4954303;29;20117;-69
2022/01/11 02:01:17;;;;;;;51.33;21.03;;;2.80;99.90;;;;;;4954212;28;20134;-69
2022/01/11 02:03:45;;;;;;;42.40;20.77;;;2.80;99.90;;;;;;4955511;29;20471;-69
2022/01/11 02:06:16;;;;;;;48.67;21.17;;;2.80;99.90;;;;;;4954731;29;20086;-69
2022/01/11 02:08:44;;;;;;;55.33;22.43;;;2.80;99.90;;;;;;4955320;29;20073;-69
2022/01/11 02:14:34;;;;;;;54.90;22.77;;;2.80;99.90;;;;;;4954519;29;20050;-69
2022/01/11 02:17:01;;;;;;;52.33;21.07;;;2.80;99.90;;;;;;4954147;29;20047;-69
2022/01/11 02:19:29;;;;;;;45.80;19.87;;;2.80;99.90;;;;;;4954750;29;20392;-69
2022/01/11 02:21:57;;;;;;;55.40;20.10;;;2.80;99.90;;;;;;4954633;28;20138;-69
2022/01/11 02:24:24;;;;;;;49.27;20.77;;;2.80;99.90;;;;;;4954804;29;20474;-69
2022/01/11 02:26:51;;;;;;;48.80;20.10;;;2.80;99.90;;;;;;4954445;29;20137;-69
2022/01/11 02:29:19;;;;;;;50.13;20.70;;;2.80;99.90;;;;;;4954854;29;20134;-69
2022/01/11 02:31:46;;;;;;;40.80;18.57;;;2.70;99.90;;;;;;4954384;28;20047;-69
2022/01/11 02:34:13;;;;;;;41.37;19.10;;;2.80;99.90;;;;;;4953652;29;20111;-70
2022/01/11 02:36:40;;;;;;;45.27;19.33;;;2.70;99.90;;;;;;4953773;29;20055;-69
2022/01/11 02:39:08;;;;;;;42.47;18.67;;;2.70;99.90;;;;;;4953685;29;20143;-69
2022/01/11 02:41:36;;;;;;;46.63;20.17;;;2.70;99.90;;;;;;4953711;28;20133;-69
2022/01/11 02:44:03;;;;;;;39.73;19.43;;;2.70;99.90;;;;;;4953730;29;20497;-69
2022/01/11 02:46:30;;;;;;;48.37;19.20;;;2.70;99.90;;;;;;4953371;29;20138;-69
2022/01/11 02:48:57;;;;;;;43.20;18.90;;;2.70;99.90;;;;;;4953897;29;20506;-69
2022/01/11 02:51:25;;;;;;;45.00;19.70;;;2.70;99.90;;;;;;4953336;28;20051;-69
2022/01/11 02:53:54;;;;;;;48.23;19.83;;;2.70;99.90;;;;;;4953583;29;20505;-69
2022/01/11 02:56:23;;;;;;;49.17;20.20;;;2.70;99.90;;;;;;4953415;29;20051;-69
2022/01/11 02:58:50;;;;;;;51.07;20.77;;;2.70;99.90;;;;;;4953497;29;20094;-69
2022/01/11 03:01:17;;;;;;;47.80;20.57;;;2.70;99.90;;;;;;4953282;28;20087;-69
2022/01/11 03:03:44;;;;;;;48.40;18.97;;;2.70;99.90;;;;;;4953478;29;20423;-69
2022/01/11 03:06:11;;;;;;;46.77;18.67;;;2.70;99.90;;;;;;4953351;29;20569;-69
2022/01/11 03:08:42;;;;;;;50.13;20.87;;;2.70;99.90;;;;;;4955623;28;20110;-69
2022/01/11 03:11:09;;;;;;;43.07;17.97;;;2.70;99.90;;;;;;4960062;29;20063;-70
2022/01/11 03:13:38;;;;;;;45.77;18.73;;;2.70;99.90;;;;;;4959589;28;20047;-69
2022/01/11 03:16:05;;;;;;;38.80;17.47;;;2.70;99.90;;;;;;4959538;29;20117;-69
2022/01/11 03:18:33;;;;;;;37.13;17.37;;;2.70;99.90;;;;;;4959656;28;20050;-69
2022/01/11 03:21:00;;;;;;;45.83;19.23;;;2.80;99.90;;;;;;4959701;28;20138;-69
2022/01/11 03:23:28;;;;;;;43.73;18.33;;;2.70;99.90;;;;;;4959691;28;20494;-68
2022/01/11 03:25:55;;;;;;;40.93;17.63;;;2.70;99.90;;;;;;4959497;29;20389;-69
2022/01/11 03:28:24;;;;;;;40.90;17.57;;;2.70;99.90;;;;;;4959629;29;20477;-68
2022/01/11 03:30:54;;;;;;;37.70;17.07;;;2.70;99.90;;;;;;4959632;29;20138;-68
2022/01/11 03:33:21;;;;;;;45.73;18.20;;;2.70;99.90;;;;;;4959701;28;20046;-68
2022/01/11 03:35:49;;;;;;;46.03;19.07;;;2.70;99.90;;;;;;4959460;29;20047;-68
2022/01/11 03:38:17;;;;;;;39.43;17.73;;;2.70;99.90;;;;;;4959564;29;20570;-68
2022/01/11 03:40:44;;;;;;;38.67;18.13;;;2.70;99.90;;;;;;4959938;28;20486;-68
2022/01/11 03:43:11;;;;;;;45.03;18.53;;;2.70;99.90;;;;;;4975469;28;20086;-70
2022/01/11 03:45:39;;;;;;;45.00;18.23;;;2.60;99.90;;;;;;5112011;23;20480;-75
2022/01/11 03:48:08;;;;;;;44.73;19.00;;;2.60;99.90;;;;;;5003112;28;20133;-73
2022/01/11 03:50:36;;;;;;;39.37;17.77;;;2.60;99.90;;;;;;5003032;28;20129;-73
2022/01/11 03:53:10;;;;;;;39.13;17.43;;;2.60;99.90;;;;;;5001793;28;20140;-72
2022/01/11 03:55:47;;;;;;;42.03;17.40;;;2.60;99.90;;;;;;5002806;28;20514;-72
2022/01/11 03:58:16;;;;;;;49.57;19.07;;;2.60;99.90;;;;;;5002576;28;20411;-74
2022/01/11 04:00:45;;;;;;;41.13;17.63;;;2.60;99.90;;;;;;5002917;28;20136;-73
2022/01/11 04:03:13;;;;;;;40.63;18.07;;;2.60;99.90;;;;;;5002662;28;20137;-70
2022/01/11 04:05:42;;;;;;;38.07;18.50;;;2.60;99.90;;;;;;5001917;28;20053;-70
2022/01/11 04:08:10;;;;;;;37.20;17.30;;;2.60;99.90;;;;;;5002461;28;20062;-70
2022/01/11 04:10:37;;;;;;;47.07;19.17;;;2.60;99.90;;;;;;5002111;28;20588;-70
2022/01/11 04:13:05;;;;;;;44.63;18.07;;;2.60;99.90;;;;;;5001870;28;20047;-70
2022/01/11 04:15:32;;;;;;;43.83;18.17;;;2.60;99.90;;;;;;5001755;28;20046;-70
2022/01/11 04:17:59;;;;;;;36.50;17.20;;;2.60;99.90;;;;;;5002125;28;20046;-71
2022/01/11 04:20:27;;;;;;;45.07;18.20;;;2.60;99.90;;;;;;4998975;28;20652;-71
2022/01/11 04:22:54;;;;;;;39.53;17.30;;;2.60;99.90;;;;;;4998525;28;20093;-73
2022/01/11 04:25:21;;;;;;;41.07;19.70;;;2.60;99.90;;;;;;4998651;28;20078;-70
2022/01/11 04:27:48;;;;;;;43.57;18.73;;;2.60;99.90;;;;;;4999086;28;20110;-72
2022/01/11 04:30:15;;;;;;;42.70;18.13;;;2.70;99.90;;;;;;4998713;28;20086;-70
2022/01/11 04:32:42;;;;;;;46.33;17.93;;;2.70;99.90;;;;;;4998348;28;20135;-70
2022/01/11 04:35:12;;;;;;;49.23;18.70;;;2.70;99.90;;;;;;4998125;28;20138;-70
2022/01/11 04:37:41;;;;;;;45.53;17.93;;;2.70;99.90;;;;;;4998797;28;20089;-70
2022/01/11 04:40:09;;;;;;;45.87;18.47;;;2.70;99.90;;;;;;4999159;28;20129;-70
2022/01/11 04:42:35;;;;;;;36.87;16.33;;;2.60;99.90;;;;;;4998288;28;20137;-71
2022/01/11 04:45:03;;;;;;;43.57;17.67;;;2.60;99.90;;;;;;4997992;28;20051;-71
2022/01/11 04:47:30;;;;;;;40.20;18.47;;;2.60;99.90;;;;;;4998613;28;20054;-73
2022/01/11 04:49:56;;;;;;;42.50;17.10;;;2.60;99.90;;;;;;4998745;28;20566;-71
2022/01/11 04:52:23;;;;;;;44.73;17.90;;;2.60;99.90;;;;;;4998542;28;20137;-70
2022/01/11 04:54:51;;;;;;;46.83;17.53;;;2.60;99.90;;;;;;4999646;28;20493;-71
2022/01/11 04:57:18;;;;;;;39.53;17.57;;;2.60;99.90;;;;;;4999053;28;20121;-71
2022/01/11 04:59:45;;;;;;;38.03;15.97;;;2.60;99.90;;;;;;4998184;28;20133;-71
2022/01/11 05:02:12;;;;;;;35.03;15.73;;;2.70;99.90;;;;;;4999052;28;20062;-73
2022/01/11 05:04:39;;;;;;;39.60;16.50;;;2.60;99.90;;;;;;4998631;28;20133;-73
2022/01/11 05:07:06;;;;;;;40.07;17.57;;;2.60;99.90;;;;;;4998562;28;20046;-73
2022/01/11 05:09:33;;;;;;;42.53;17.77;;;2.70;99.90;;;;;;4998430;28;20138;-71
2022/01/11 05:12:01;;;;;;;42.40;17.33;;;2.60;99.90;;;;;;4998039;28;20145;-71
2022/01/11 05:14:28;;;;;;;40.80;17.53;;;2.60;99.90;;;;;;4998025;28;20050;-71
2022/01/11 05:16:55;;;;;;;37.90;16.50;;;2.60;99.90;;;;;;4997568;28;20136;-71
2022/01/11 05:19:22;;;;;;;40.83;16.30;;;2.70;99.90;;;;;;4998100;28;20129;-71
2022/01/11 05:21:49;;;;;;;38.97;16.50;;;2.60;99.90;;;;;;4998177;28;20077;-70
2022/01/11 05:24:16;;;;;;;55.90;18.73;;;2.70;99.90;;;;;;4998351;28;20082;-73
2022/01/11 05:26:43;;;;;;;45.37;18.37;;;2.60;99.90;;;;;;4998323;28;20390;-73
2022/01/11 05:29:11;;;;;;;44.67;17.90;;;2.70;99.90;;;;;;4998110;28;20110;-72
2022/01/11 05:31:38;;;;;;;46.70;17.77;;;2.70;99.90;;;;;;4998227;28;20125;-73
2022/01/11 05:34:05;;;;;;;35.53;16.33;;;2.70;99.90;;;;;;4998187;28;20138;-74
2022/01/11 05:36:32;;;;;;;40.67;17.33;;;2.70;99.90;;;;;;4997884;28;20145;-76
2022/01/11 05:38:59;;;;;;;39.17;17.17;;;2.60;99.90;;;;;;4997901;28;20129;-73
2022/01/11 05:41:25;;;;;;;38.93;17.03;;;2.70;99.90;;;;;;4998031;28;20114;-75
2022/01/11 05:43:52;;;;;;;41.90;16.00;;;2.70;99.90;;;;;;4997841;28;20056;-74
2022/01/11 05:46:21;;;;;;;39.07;16.37;;;2.60;99.90;;;;;;4997978;28;20114;-73
2022/01/11 05:48:48;;;;;;;39.73;14.90;;;2.60;99.90;;;;;;4998130;28;20108;-75
2022/01/11 05:51:15;;;;;;;35.60;15.23;;;2.60;99.90;;;;;;4998592;28;20093;-71
2022/01/11 05:53:42;;;;;;;32.40;14.90;;;2.60;99.90;;;;;;4997681;28;20061;-73
2022/01/11 05:56:09;;;;;;;33.10;15.07;;;2.60;99.90;;;;;;4997802;28;20074;-71
2022/01/11 05:58:37;;;;;;;36.13;14.60;;;2.60;99.90;;;;;;4997508;28;20526;-73
2022/01/11 06:01:04;;;;;;;34.23;15.73;;;2.60;99.90;;;;;;4997371;28;20125;-70
2022/01/11 06:03:32;;;;;;;34.13;14.43;;;2.60;99.90;;;;;;4997147;28;20137;-71
2022/01/11 06:05:59;;;;;;;34.00;14.83;;;2.60;99.90;;;;;;4997855;28;20133;-73
2022/01/11 06:08:26;;;;;;;35.87;15.50;;;2.60;99.90;;;;;;4997995;28;20046;-70
2022/01/11 06:10:53;;;;;;;30.00;14.67;;;2.60;99.90;;;;;;4997183;28;20137;-70
2022/01/11 06:13:20;;;;;;;36.00;16.27;;;2.50;99.90;;;;;;4996864;28;20142;-74
2022/01/11 06:15:47;;;;;;;34.23;15.83;;;2.60;99.90;;;;;;4997258;28;20046;-73
2022/01/11 06:18:14;;;;;;;36.13;17.13;;;2.60;99.90;;;;;;4997438;28;20082;-72
2022/01/11 06:20:42;;;;;;;36.40;16.93;;;2.60;99.90;;;;;;4997649;28;20574;-73
2022/01/11 06:23:09;;;;;;;38.77;17.07;;;2.50;99.90;;;;;;4997216;28;20390;-70
2022/01/11 06:25:36;;;;;;;34.80;15.80;;;2.50;99.90;;;;;;4996643;28;20141;-73
2022/01/11 06:28:04;;;;;;;38.50;17.00;;;2.60;99.90;;;;;;4997513;28;20571;-70
2022/01/11 06:30:31;;;;;;;32.97;15.77;;;2.60;99.90;;;;;;4996175;28;20109;-71
2022/01/11 06:32:57;;;;;;;30.50;14.77;;;2.60;99.90;;;;;;4996535;28;20141;-71
2022/01/11 06:35:25;;;;;;;38.53;16.97;;;2.60;99.90;;;;;;4997656;28;20113;-71
2022/01/11 06:37:54;;;;;;;34.83;15.70;;;2.50;99.90;;;;;;4997946;28;20055;-73
2022/01/11 06:40:23;;;;;;;36.00;16.57;;;2.50;99.90;;;;;;4997232;28;20086;-74
2022/01/11 06:42:52;;;;;;;37.27;14.87;;;2.50;99.90;;;;;;4996375;28;20141;-72
2022/01/11 06:45:21;;;;;;;40.53;15.73;;;2.50;99.90;;;;;;4996362;28;20062;-74
2022/01/11 06:47:48;;;;;;;36.83;16.00;;;2.40;99.90;;;;;;4996972;28;20084;-71
2022/01/11 06:50:16;;;;;;;32.70;15.13;;;2.50;99.90;;;;;;4997069;28;20047;-74
2022/01/11 06:52:56;;;;;;;37.60;15.73;;;2.50;99.90;;;;;;4997289;28;20053;-73
2022/01/11 06:55:24;;;;;;;38.93;16.07;;;2.50;99.90;;;;;;4996878;28;20046;-72
2022/01/11 06:57:51;;;;;;;33.57;14.43;;;2.50;99.90;;;;;;4997419;28;20082;-74
2022/01/11 07:00:19;;;;;;;37.53;15.73;;;2.50;99.90;;;;;;4997155;28;20110;-71
2022/01/11 07:02:49;;;;;;;37.10;15.10;;;2.50;99.90;;;;;;4997291;28;20060;-72
2022/01/11 07:05:17;;;;;;;30.03;14.10;;;2.50;99.90;;;;;;4997051;28;20503;-73
2022/01/11 07:07:44;;;;;;;35.20;15.07;;;2.50;99.90;;;;;;4998185;28;20484;-74
2022/01/11 07:10:11;;;;;;;34.00;14.77;;;2.50;99.90;;;;;;4998356;28;20056;-71
2022/01/11 07:12:40;;;;;;;36.60;15.50;;;2.50;99.90;;;;;;4997184;28;20422;-73
2022/01/11 07:15:07;;;;;;;35.57;15.90;;;2.50;99.90;;;;;;4997684;28;20051;-74
2022/01/11 07:17:34;;;;;;;34.57;15.40;;;2.50;99.90;;;;;;4997961;28;20391;-74
2022/01/11 07:20:01;;;;;;;30.27;13.47;;;2.60;99.90;;;;;;4998380;28;20145;-74
2022/01/11 07:22:28;;;;;;;34.83;14.90;;;2.60;99.90;;;;;;4996588;28;20141;-69
2022/01/11 07:24:55;;;;;;;34.40;15.77;;;2.60;99.90;;;;;;4995802;28;20054;-70
2022/01/11 07:27:22;;;;;;;30.57;15.00;;;2.60;99.90;;;;;;4995909;28;20494;-72
2022/01/11 07:29:51;;;;;;;33.70;14.37;;;2.60;99.90;;;;;;4996175;28;20058;-72
2022/01/11 07:32:18;;;;;;;40.80;16.03;;;2.60;99.90;;;;;;4996397;28;20065;-75
2022/01/11 07:34:45;;;;;;;33.80;15.00;;;2.60;99.90;;;;;;4995395;28;20046;-70
2022/01/11 07:37:12;;;;;;;32.53;15.30;;;2.70;99.90;;;;;;4995872;28;20141;-70
2022/01/11 07:39:38;;;;;;;31.57;14.40;;;2.60;99.90;;;;;;4995990;28;20097;-73
2022/01/11 07:42:06;;;;;;;31.20;14.47;;;2.60;99.90;;;;;;4996750;28;20138;-74
2022/01/11 07:44:33;;;;;;;31.60;14.67;;;2.70;99.90;;;;;;4996301;28;20057;-70
2022/01/11 07:47:02;;;;;;;33.00;14.73;;;2.70;99.90;;;;;;4995058;28;20413;-70
2022/01/11 07:49:29;;;;;;;31.33;14.50;;;2.70;99.90;;;;;;4995441;28;20414;-70
2022/01/11 07:51:56;;;;;;;28.97;12.80;;;2.70;99.90;;;;;;4995559;28;20046;-69
2022/01/11 07:54:23;;;;;;;30.17;13.60;;;2.70;99.90;;;;;;4995890;28;20144;-70
2022/01/11 07:56:50;;;;;;;28.43;12.77;;;2.70;99.90;;;;;;4999020;28;20565;-72
2022/01/11 07:59:17;;;;;;;30.33;12.93;;;2.70;99.90;;;;;;4999417;28;20594;-74
2022/01/11 08:01:43;;;;;;;27.67;13.30;;;2.60;99.90;;;;;;4999513;28;20061;-75
2022/01/11 08:04:12;;;;;;;36.87;14.17;;;2.60;99.90;;;;;;4999965;28;20054;-72
2022/01/11 08:06:39;;;;;;;30.70;14.27;;;2.70;99.90;;;;;;4999487;28;20136;-72
2022/01/11 08:09:07;;;;;;;32.97;14.80;;;2.70;99.90;;;;;;4999981;28;20129;-73
2022/01/11 08:11:34;;;;;;;32.90;13.63;;;2.70;99.90;;;;;;4999698;28;20057;-73
2022/01/11 08:14:01;;;;;;;36.80;14.07;;;2.80;99.90;;;;;;4999555;28;20136;-72
2022/01/11 08:16:28;;;;;;;30.70;15.00;;;2.80;99.90;;;;;;4998839;28;20138;-70
2022/01/11 08:18:55;;;;;;;30.47;14.23;;;2.80;99.90;;;;;;4998785;28;20458;-72
2022/01/11 08:21:23;;;;;;;31.43;14.23;;;2.90;99.90;;;;;;4998954;28;20418;-72
2022/01/11 08:23:50;;;;;;;33.03;14.33;;;2.80;99.90;;;;;;4999979;28;20074;-73
2022/01/11 08:26:17;;;;;;;32.10;14.33;;;2.80;99.90;;;;;;4999299;28;20101;-70
2022/01/11 08:28:44;;;;;;;29.30;13.70;;;2.90;99.90;;;;;;4999198;28;20125;-71
2022/01/11 08:31:11;;;;;;;31.93;14.67;;;2.90;99.90;;;;;;4999341;28;20062;-74
2022/01/11 08:33:39;;;;;;;29.60;14.10;;;2.90;99.90;;;;;;4999075;28;20052;-70
2022/01/11 08:36:07;;;;;;;30.10;14.23;;;3.00;99.90;;;;;;4998843;28;20406;-74
2022/01/11 08:38:35;;;;;;;28.67;14.63;;;3.00;99.90;;;;;;4999076;28;20528;-73
2022/01/11 08:41:02;;;;;;;30.97;13.50;;;3.00;99.90;;;;;;4999764;28;20089;-72
2022/01/11 08:43:29;;;;;;;26.67;13.17;;;2.90;99.90;;;;;;4999361;28;20507;-73
2022/01/11 08:45:57;;;;;;;33.00;14.33;;;3.00;99.90;;;;;;4998724;28;20086;-75
2022/01/11 08:48:26;;;;;;;35.60;14.50;;;3.00;99.90;;;;;;4998921;28;20144;-70
2022/01/11 08:50:53;;;;;;;25.13;12.40;;;3.00;99.90;;;;;;4998640;28;20062;-74
2022/01/11 08:53:21;;;;;;;30.20;13.97;;;3.00;99.90;;;;;;4999030;28;20077;-72
2022/01/11 08:55:50;;;;;;;29.60;14.43;;;3.10;99.90;;;;;;4998884;28;20051;-73
2022/01/11 08:58:17;;;;;;;28.20;13.30;;;3.10;99.90;;;;;;4998750;28;20052;-70
2022/01/11 09:00:46;;;;;;;31.20;14.27;;;3.10;99.90;;;;;;4999102;28;20078;-73
2022/01/11 09:03:13;;;;;;;33.63;14.87;;;3.10;99.90;;;;;;4999071;28;20065;-70
2022/01/11 09:05:39;;;;;;;32.10;14.07;;;3.20;99.90;;;;;;4997611;28;20154;-73
2022/01/11 09:08:07;;;;;;;29.13;13.30;;;3.10;99.90;;;;;;4999167;28;20105;-73
2022/01/11 09:10:34;;;;;;;30.27;13.67;;;3.20;99.90;;;;;;4998763;28;20089;-72
2022/01/11 09:13:02;;;;;;;28.63;14.20;;;3.20;99.90;;;;;;4998527;28;20051;-73
2022/01/11 09:15:29;;;;;;;28.47;13.00;;;3.20;99.90;;;;;;4998514;28;20090;-73
2022/01/11 09:17:59;;;;;;;32.23;13.57;;;3.30;99.90;;;;;;4998728;28;20101;-72
2022/01/11 09:20:26;;;;;;;25.47;12.53;;;3.30;99.90;;;;;;4998835;28;20081;-73
2022/01/11 09:22:53;;;;;;;31.47;15.27;;;3.30;99.90;;;;;;4998964;28;20517;-72
2022/01/11 09:25:20;;;;;;;30.27;13.63;;;3.30;99.90;;;;;;4997995;28;20081;-71
2022/01/11 09:27:48;;;;;;;27.05;13.25;;;3.30;99.90;;;;;;4999321;28;20077;-72
2022/01/11 09:30:17;;;;;;;29.50;13.97;;;3.20;99.90;;;;;;4998505;28;20115;-73
2022/01/11 09:32:44;;;;;;;24.73;13.50;;;3.40;99.90;;;;;;4998566;28;20125;-72
2022/01/11 09:35:15;;;;;;;26.87;13.10;;;3.50;99.90;;;;;;4998356;28;20085;-73
2022/01/11 09:37:46;;;;;;;26.33;12.90;;;3.60;99.90;;;;;;4998218;28;20138;-73
2022/01/11 09:40:13;;;;;;;28.97;13.57;;;3.60;99.90;;;;;;4999290;28;20109;-73
2022/01/11 09:42:40;;;;;;;25.08;12.15;;;3.70;99.90;;;;;;4998928;28;20104;-73
2022/01/11 09:45:14;;;;;;;29.03;14.17;;;3.50;99.90;;;;;;5011310;23;20069;-69
2022/01/11 09:47:43;;;;;;;29.42;13.35;;;3.60;99.90;;;;;;4993623;28;20050;-68
2022/01/11 09:50:15;;;;;;;28.00;13.18;;;3.70;99.90;;;;;;4993557;28;20137;-69
2022/01/11 09:52:42;;;;;;;28.63;12.98;;;3.70;99.90;;;;;;4993420;28;20046;-67
2022/01/11 09:55:13;;;;;;;26.53;13.10;;;3.70;99.90;;;;;;4993381;28;20181;-69
2022/01/11 09:57:44;;;;;;;26.42;12.93;;;3.70;99.90;;;;;;4993400;28;20135;-66
2022/01/11 10:00:13;;;;;;;26.75;12.85;;;3.80;99.90;;;;;;4993940;28;20057;-67
2022/01/11 10:02:42;;;;;;;30.08;13.98;;;3.90;99.90;;;;;;4996154;28;20076;-69
2022/01/11 10:05:12;;;;;;;26.58;12.90;;;3.90;99.90;;;;;;4995473;28;20090;-69
2022/01/11 10:07:41;;;;;;;25.23;12.38;;;4.00;99.90;;;;;;4993843;28;20458;-69
2022/01/11 10:10:13;;;;;;;24.98;11.35;;;4.00;99.90;;;;;;4996704;28;20133;-69
2022/01/11 10:12:45;;;;;;;21.65;11.10;;;4.00;99.90;;;;;;4993302;28;20061;-67
2022/01/11 10:15:13;;;;;;;23.38;10.90;;;4.00;99.90;;;;;;4993217;28;20051;-67
2022/01/11 10:17:41;;;;;;;24.10;10.80;;;4.20;99.90;;;;;;4992600;28;20078;-67
2022/01/11 10:20:12;;;;;;;24.10;10.40;;;4.20;99.90;;;;;;4992229;28;20471;-67
2022/01/11 10:22:48;;;;;;;19.40;10.30;;;4.20;99.90;;;;;;4993261;28;20101;-67
2022/01/11 10:25:18;;;;;;;22.02;10.65;;;4.30;99.90;;;;;;4993889;28;20078;-69
2022/01/11 10:27:52;;;;;;;22.80;10.70;;;4.30;99.90;;;;;;4993576;28;20062;-67
2022/01/11 10:30:23;;;;;;;19.85;9.20;;;4.40;99.90;;;;;;4993177;28;20133;-67
2022/01/11 10:32:51;;;;;;;20.27;10.13;;;4.50;99.90;;;;;;4994723;28;20058;-67
2022/01/11 10:35:23;;;;;;;18.33;9.85;;;4.60;99.90;;;;;;4992627;28;20093;-67
2022/01/11 10:37:52;;;;;;;20.00;9.35;;;4.50;99.90;;;;;;4992901;28;20573;-67
2022/01/11 10:40:21;;;;;;;20.98;10.18;;;4.60;99.90;;;;;;4992786;28;20271;-67
2022/01/11 10:42:51;;;;;;;19.08;9.93;;;4.60;99.90;;;;;;4992782;28;20226;-67
2022/01/11 10:45:21;;;;;;;23.52;9.00;;;4.70;99.90;;;;;;4992683;28;20533;-67
2022/01/11 10:47:49;;;;;;;16.90;8.70;;;4.80;99.90;;;;;;4993908;28;20133;-67
2022/01/11 10:50:22;;;;;;;20.25;9.88;;;4.80;99.90;;;;;;4992647;28;20133;-68
2022/01/11 10:52:52;;;;;;;17.85;9.30;;;4.80;99.90;;;;;;4992361;28;20145;-67
2022/01/11 10:55:21;;;;;;;19.65;9.50;;;4.80;99.90;;;;;;4992593;28;20081;-67
2022/01/11 10:57:53;;;;;;;19.92;9.60;;;4.80;99.90;;;;;;4992476;28;20138;-67
2022/01/11 11:00:30;;;;;;;20.45;9.75;;;4.80;99.90;;;;;;4992692;28;20086;-67
2022/01/11 11:03:02;;;;;;;18.75;9.60;;;4.60;99.90;;;;;;4992437;28;20125;-68
2022/01/11 11:05:34;;;;;;;20.70;10.32;;;4.60;99.90;;;;;;4992680;28;20137;-67
2022/01/11 11:08:05;;;;;;;21.13;11.00;;;4.80;99.90;;;;;;4992447;28;20134;-68
2022/01/11 11:10:36;;;;;;;19.58;10.15;;;4.90;99.90;;;;;;4992462;28;20485;-69
2022/01/11 11:13:05;;;;;;;22.88;11.52;;;4.80;99.90;;;;;;4992125;28;20062;-68
2022/01/11 11:15:33;;;;;;;20.23;10.27;;;4.90;99.90;;;;;;4992022;28;20137;-68
2022/01/11 11:18:03;;;;;;;22.77;10.43;;;4.90;99.90;;;;;;4992492;28;20061;-68
2022/01/11 11:20:32;;;;;;;22.63;10.55;;;4.90;99.90;;;;;;4992460;28;20055;-67
2022/01/11 11:23:01;;;;;;;21.45;11.00;;;4.90;99.90;;;;;;4992251;28;20090;-67
2022/01/11 11:25:29;;;;;;;23.25;10.80;;;4.80;99.90;;;;;;4992033;28;20054;-68
2022/01/11 11:27:56;;;;;;;21.45;10.63;;;4.80;99.90;;;;;;4992170;28;20134;-68
2022/01/11 11:30:23;;;;;;;22.67;10.68;;;4.80;99.90;;;;;;4994694;28;20073;-68
2022/01/11 11:32:53;;;;;;;19.38;9.90;;;4.80;99.90;;;;;;4995976;28;20109;-69
2022/01/11 11:35:21;;;;;;;18.17;9.45;;;4.90;99.90;;;;;;4995926;28;20054;-70
2022/01/11 11:37:55;;;;;;;20.08;9.40;;;4.90;99.90;;;;;;4996097;28;20142;-68
2022/01/11 11:40:25;;;;;;;19.67;9.00;;;4.90;99.90;;;;;;4996030;28;20050;-67
2022/01/11 11:42:55;;;;;;;16.15;9.10;;;4.90;99.90;;;;;;4996094;28;20494;-67
2022/01/11 11:45:24;;;;;;;17.77;8.43;;;4.90;99.90;;;;;;4995566;28;20533;-68
2022/01/11 11:47:51;;;;;;;16.17;8.75;;;4.80;99.90;;;;;;4996058;28;20137;-68
2022/01/11 11:50:22;;;;;;;17.20;8.55;;;4.90;99.90;;;;;;4995987;28;20066;-68
2022/01/11 11:52:52;;;;;;;15.35;8.05;;;4.90;99.90;;;;;;4996161;28;20054;-70
2022/01/11 11:55:23;;;;;;;16.88;8.77;;;4.90;99.90;;;;;;4996312;28;20050;-70
2022/01/11 11:57:52;;;;;;;17.15;7.85;;;4.90;99.90;;;;;;4996391;28;20148;-71
2022/01/11 12:00:23;;;;;;;14.90;8.32;;;4.90;99.90;;;;;;4995756;28;20138;-71
2022/01/11 12:02:52;;;;;;;13.55;7.00;;;4.90;99.90;;;;;;4995578;28;20447;-70
2022/01/11 12:05:38;;;;;;;13.07;6.45;;;4.80;99.90;;;;;;4997766;28;20136;-71
2022/01/11 12:08:35;;;;;;;20.60;6.25;;;4.70;99.90;;;;;;4996469;28;20065;-71
2022/01/11 12:11:04;;;;;;;18.15;5.70;;;4.70;99.90;;;;;;4997021;28;20509;-71
2022/01/11 12:13:41;;;;;;;11.75;5.68;;;4.60;99.90;;;;;;4995592;28;20054;-71
2022/01/11 12:16:52;;;;;;;13.40;5.63;;;4.50;99.90;;;;;;4995288;28;20051;-71
2022/01/11 12:19:47;;;;;;;12.68;6.10;;;4.50;99.90;;;;;;4995452;28;20137;-71
2022/01/11 12:22:42;;;;;;;13.30;6.20;;;4.40;99.90;;;;;;4995199;28;20085;-71
2022/01/11 12:25:28;;;;;;;14.20;7.47;;;4.40;99.90;;;;;;4994268;28;20050;-71
2022/01/11 12:28:04;;;;;;;15.15;7.45;;;4.40;99.90;;;;;;4997323;28;20141;-71
2022/01/11 12:30:32;;;;;;;15.65;7.40;;;4.40;99.90;;;;;;4996139;28;20516;-71
2022/01/11 12:33:13;;;;;;;16.50;7.95;;;4.40;99.90;;;;;;5003177;28;20093;-71
2022/01/11 12:36:10;;;;;;;16.77;7.72;;;4.40;99.90;;;;;;5006705;28;20077;-71
2022/01/11 12:38:37;;;;;;;16.80;7.97;;;4.40;99.90;;;;;;4925997;29;20420;-71
2022/01/11 12:41:33;;;;;;;15.82;8.10;;;4.30;99.90;;;;;;4978739;28;20054;-71
2022/01/11 12:44:19;;;;;;;16.23;8.77;;;4.20;99.90;;;;;;4998292;28;20050;-70
2022/01/11 12:46:54;;;;;;;16.05;8.82;;;4.30;99.90;;;;;;4997422;28;20097;-71
2022/01/11 12:49:24;;;;;;;17.80;9.25;;;4.30;99.90;;;;;;4997925;28;20112;-70
2022/01/11 12:51:54;;;;;;;18.90;8.98;;;4.30;99.90;;;;;;4998030;28;20050;-71